Time;durP1;ratioP1;P1;durP2;ratioP2;P2;SDS_P1;SDS_P2;PMS_P1;PMS_P2;Temp;Humidity;BMP_temperature;BMP_pressure;BME280_temperature;BME280_humidity;BME280_pressure;Samples;Min_cycle;Max_cycle;Signal;HPM_P1;HPM_P2
2022/06/22 00:01:29;;;;;;;2.60;2.35;;;;;;;20.15;70.03;100101.91;4994738;28;101802;-48
2022/06/22 00:04:00;;;;;;;2.50;2.30;;;;;;;20.15;70.17;100096.38;4996314;28;102194;-47
2022/06/22 00:06:32;;;;;;;3.22;2.47;;;;;;;20.14;70.38;100090.03;4974178;28;104051;-48
2022/06/22 00:09:00;;;;;;;2.30;2.13;;;;;;;20.13;69.78;100091.22;4975263;28;102496;-48
2022/06/22 00:11:29;;;;;;;2.45;2.25;;;;;;;20.15;69.71;100107.41;4985450;28;102193;-48
2022/06/22 00:13:59;;;;;;;2.10;2.00;;;;;;;20.15;69.56;100093.59;4994520;28;102376;-48
2022/06/22 00:16:29;;;;;;;3.67;2.38;;;;;;;20.14;69.63;100092.81;4993826;28;103929;-48
2022/06/22 00:18:57;;;;;;;3.47;2.40;;;;;;;20.14;69.57;100089.25;4993225;28;102157;-48
2022/06/22 00:21:28;;;;;;;2.65;2.42;;;;;;;20.15;69.44;100093.59;4993069;28;102454;-47
2022/06/22 00:23:58;;;;;;;2.95;2.45;;;;;;;20.15;69.49;100094.41;4989372;28;102382;-48
2022/06/22 00:26:33;;;;;;;3.08;2.38;;;;;;;20.15;69.43;100090.84;4993256;28;104101;-48
2022/06/22 00:29:16;;;;;;;3.00;2.40;;;;;;;20.15;69.33;100085.31;4993858;28;101895;-47
2022/06/22 00:31:56;;;;;;;2.25;2.05;;;;;;;20.15;69.15;100088.09;4993142;28;101952;-48
2022/06/22 00:34:25;;;;;;;2.25;2.15;;;;;;;20.15;69.34;100091.63;4994824;28;102240;-48
2022/06/22 00:36:59;;;;;;;3.10;2.53;;;;;;;20.15;69.35;100090.84;4995119;28;104117;-47
2022/06/22 00:39:31;;;;;;;2.42;2.00;;;;;;;20.16;69.17;100098.00;4997131;28;102252;-48
2022/06/22 00:42:14;;;;;;;2.10;1.98;;;;;;;20.15;69.12;100090.84;4997541;28;102407;-47
2022/06/22 00:44:44;;;;;;;2.28;2.08;;;;;;;20.14;69.16;100084.50;4983853;28;102336;-48
2022/06/22 00:47:21;;;;;;;2.28;2.17;;;;;;;20.14;69.09;100078.19;4977386;28;104024;-48
2022/06/22 00:49:48;;;;;;;3.75;2.17;;;;;;;20.15;69.19;100079.78;4993908;28;102379;-47
2022/06/22 00:52:24;;;;;;;3.35;1.90;;;;;;;20.15;69.33;100074.28;4996883;28;101895;-48
2022/06/22 00:54:51;;;;;;;2.50;2.00;;;;;;;20.16;68.93;100081.41;4998871;28;102076;-48
2022/06/22 00:57:25;;;;;;;2.25;2.05;;;;;;;20.15;69.18;100065.97;4996860;28;103964;-47
2022/06/22 00:59:58;;;;;;;3.03;2.72;;;;;;;20.16;69.10;100070.38;4995137;28;102678;-48
2022/06/22 01:02:32;;;;;;;3.28;2.00;;;;;;;20.14;69.23;100069.91;4997249;28;102217;-47
2022/06/22 01:05:10;;;;;;;2.45;2.10;;;;;;;20.15;69.11;100071.50;4998260;28;102199;-48
2022/06/22 01:07:43;;;;;;;2.20;2.00;;;;;;;20.16;69.09;100064.84;4997093;28;103987;-48
2022/06/22 01:10:15;;;;;;;2.40;2.17;;;;;;;20.14;69.28;100056.09;4997311;28;102696;-48
2022/06/22 01:12:51;;;;;;;2.13;1.85;;;;;;;20.13;69.48;100054.50;4996892;28;102366;-47
2022/06/22 01:15:25;;;;;;;2.25;1.98;;;;;;;20.13;69.43;100046.22;4996675;28;102527;-48
2022/06/22 01:17:56;;;;;;;2.42;2.22;;;;;;;20.13;69.32;100054.50;4996359;28;108070;-48
2022/06/22 01:20:31;;;;;;;2.25;2.08;;;;;;;20.14;69.41;100064.38;4997289;28;102061;-48
2022/06/22 01:23:31;;;;;;;2.20;2.00;;;;;;;20.14;69.44;100053.34;4996375;28;102618;-48
2022/06/22 01:26:11;;;;;;;2.13;1.90;;;;;;;20.14;69.05;100059.66;4988258;28;102099;-48
2022/06/22 01:28:39;;;;;;;2.60;1.90;;;;;;;20.14;68.85;100056.09;4996446;28;104065;-48
2022/06/22 01:31:13;;;;;;;1.83;1.73;;;;;;;20.12;69.07;100058.38;4995066;28;102295;-48
2022/06/22 01:33:43;;;;;;;1.92;1.75;;;;;;;20.13;68.93;100055.28;4996202;28;102313;-47
2022/06/22 01:36:23;;;;;;;1.95;1.80;;;;;;;20.13;68.74;100051.72;4986797;28;102375;-48
2022/06/22 01:38:51;;;;;;;3.45;1.90;;;;;;;20.12;68.80;100061.16;4977120;28;103934;-48
2022/06/22 01:41:29;;;;;;;2.63;2.42;;;;;;;20.13;68.73;100060.03;4989566;28;102352;-48
2022/06/22 01:44:03;;;;;;;1.67;1.58;;;;;;;20.13;68.62;100062.78;4996587;28;102195;-48
2022/06/22 01:46:40;;;;;;;2.20;2.10;;;;;;;20.14;68.60;100064.38;4996936;28;102419;-48
2022/06/22 01:49:11;;;;;;;2.53;1.90;;;;;;;20.13;68.61;100065.53;4995839;28;103929;-48
2022/06/22 01:51:46;;;;;;;2.03;1.92;;;;;;;20.14;68.42;100064.38;4993899;28;102688;-49
2022/06/22 01:54:18;;;;;;;2.95;2.05;;;;;;;20.12;68.64;100064.75;4996113;28;102157;-48
2022/06/22 01:56:51;;;;;;;1.73;1.63;;;;;;;20.12;68.56;100061.97;4997631;28;102102;-48
2022/06/22 01:59:27;;;;;;;1.70;1.60;;;;;;;20.11;68.47;100063.13;4995098;28;104161;-47
2022/06/22 02:02:01;;;;;;;1.70;1.60;;;;;;;20.13;68.56;100084.88;4993389;28;104079;-48
2022/06/22 02:04:34;;;;;;;1.75;1.65;;;;;;;20.14;68.53;100100.28;4996317;28;102389;-47
2022/06/22 02:10:26;;;;;;;1.70;1.60;;;;;;;20.13;68.54;100109.75;4995390;28;103904;-48
2022/06/22 02:13:01;;;;;;;1.73;1.60;;;;;;;20.12;68.62;100114.47;4978147;28;102418;-48
2022/06/22 02:15:46;;;;;;;1.80;1.70;;;;;;;20.12;68.23;100120.00;4995838;28;102101;-48
2022/06/22 02:18:20;;;;;;;2.38;1.73;;;;;;;20.10;68.40;100111.25;4996011;28;102087;-49
2022/06/22 02:20:47;;;;;;;2.25;2.05;;;;;;;20.11;68.34;100109.28;4995034;28;104053;-48
2022/06/22 02:23:24;;;;;;;1.95;1.75;;;;;;;20.11;68.26;100112.03;4996432;28;102181;-48
2022/06/22 02:25:57;;;;;;;1.75;1.65;;;;;;;20.12;68.25;100120.00;4995903;28;101999;-48
2022/06/22 02:28:23;;;;;;;1.70;1.60;;;;;;;20.11;68.15;100112.03;4995043;28;102730;-48
2022/06/22 02:30:52;;;;;;;1.80;1.63;;;;;;;20.12;68.05;100120.00;4993837;28;105935;-47
2022/06/22 02:33:19;;;;;;;1.70;1.60;;;;;;;20.12;68.11;100119.16;4982313;28;102144;-47
2022/06/22 02:35:46;;;;;;;2.55;1.50;;;;;;;20.12;68.04;100121.94;4996218;28;102573;-48
2022/06/22 02:38:15;;;;;;;2.80;1.60;;;;;;;20.12;67.90;100119.16;4996683;28;102108;-47
2022/06/22 02:46:18;;;;;;;1.88;1.60;;;;;;;20.13;68.10;100123.56;4995629;28;102195;-46
2022/06/22 02:48:49;;;;;;;1.77;1.65;;;;;;;20.13;68.04;100127.13;4995832;28;102354;-48
2022/06/22 02:51:21;;;;;;;1.52;1.42;;;;;;;20.13;68.17;100124.34;4994561;28;103873;-48
2022/06/22 02:53:50;;;;;;;3.40;1.70;;;;;;;20.13;68.01;100132.66;4995129;28;102151;-48
2022/06/22 02:56:21;;;;;;;1.60;1.50;;;;;;;20.14;67.85;100138.97;4994612;28;102304;-48
2022/06/22 02:58:49;;;;;;;1.48;1.38;;;;;;;20.14;67.88;100131.47;4994913;28;102213;-48
2022/06/22 03:01:19;;;;;;;1.70;1.60;;;;;;;20.14;67.94;100127.91;4992992;28;103886;-48
2022/06/22 03:03:52;;;;;;;2.65;1.63;;;;;;;20.13;68.13;100115.28;4995512;28;102304;-48
2022/06/22 03:06:22;;;;;;;2.08;1.88;;;;;;;20.12;68.06;100091.53;4993641;28;102834;-48
2022/06/22 03:08:50;;;;;;;1.98;1.40;;;;;;;20.11;68.05;100089.94;4996498;28;102292;-48
2022/06/22 03:11:18;;;;;;;1.83;1.27;;;;;;;20.12;67.92;100080.50;4993157;28;104005;-48
2022/06/22 03:13:48;;;;;;;1.60;1.48;;;;;;;20.11;68.34;100076.13;4994697;28;102231;-47
2022/06/22 03:16:25;;;;;;;1.67;1.50;;;;;;;20.11;68.44;100068.63;4992559;28;102404;-47
2022/06/22 03:18:53;;;;;;;1.52;1.42;;;;;;;20.13;68.73;100048.97;4993392;28;101998;-48
2022/06/22 03:21:20;;;;;;;1.63;1.50;;;;;;;20.12;69.09;100058.38;4991409;28;103992;-49
2022/06/22 03:23:53;;;;;;;1.50;1.40;;;;;;;20.13;69.13;100065.53;4994087;28;102108;-48
2022/06/22 03:26:22;;;;;;;1.98;1.80;;;;;;;20.13;69.11;100065.53;4992718;28;102079;-47
2022/06/22 03:29:07;;;;;;;1.52;1.42;;;;;;;20.14;69.27;100067.16;4986735;28;102163;-48
2022/06/22 03:31:43;;;;;;;1.40;1.30;;;;;;;20.13;69.48;100065.53;4988074;28;104112;-47
2022/06/22 03:34:15;;;;;;;1.67;1.58;;;;;;;20.13;69.47;100057.25;4992654;28;102402;-47
2022/06/22 03:36:47;;;;;;;1.65;1.55;;;;;;;20.12;69.81;100055.63;4992192;28;102233;-47
2022/06/22 03:39:19;;;;;;;2.20;1.73;;;;;;;20.11;69.99;100062.31;4994568;28;102241;-47
2022/06/22 03:41:49;;;;;;;1.48;1.35;;;;;;;20.11;69.96;100067.84;4991280;28;103994;-48
2022/06/22 03:44:21;;;;;;;1.83;1.73;;;;;;;20.12;70.22;100063.91;4993043;28;102530;-47
2022/06/22 03:46:54;;;;;;;1.83;1.73;;;;;;;20.11;70.18;100062.31;4992282;28;102374;-47
2022/06/22 03:49:28;;;;;;;2.08;1.60;;;;;;;20.10;70.47;100052.44;4993651;28;102304;-47
2022/06/22 03:52:00;;;;;;;1.40;1.30;;;;;;;20.10;70.61;100056.00;4990726;28;105059;-48
2022/06/22 03:54:31;;;;;;;1.60;1.50;;;;;;;20.09;70.25;100048.88;4993443;28;102336;-47
2022/06/22 03:57:03;;;;;;;1.70;1.50;;;;;;;20.11;70.51;100051.28;4992544;28;102645;-47
2022/06/22 03:59:31;;;;;;;1.50;1.40;;;;;;;20.10;70.21;100049.66;4992676;28;102150;-48
2022/06/22 04:02:00;;;;;;;1.63;1.52;;;;;;;20.12;70.24;100052.88;4991155;28;103971;-48
2022/06/22 04:04:27;;;;;;;1.55;1.45;;;;;;;20.12;70.11;100055.63;4993321;28;102350;-47
2022/06/22 04:06:54;;;;;;;1.50;1.40;;;;;;;20.12;70.04;100052.88;4992629;28;101989;-47
2022/06/22 04:09:23;;;;;;;1.60;1.50;;;;;;;20.13;70.29;100048.97;4992700;28;102644;-48
2022/06/22 04:11:56;;;;;;;1.50;1.40;;;;;;;20.13;70.27;100048.97;4991351;28;103845;-48
2022/06/22 04:14:29;;;;;;;1.55;1.45;;;;;;;20.13;70.27;100054.50;4996096;28;102324;-48
2022/06/22 04:17:03;;;;;;;2.15;1.30;;;;;;;20.14;70.05;100067.16;4992906;28;102271;-48
2022/06/22 04:19:33;;;;;;;1.50;1.40;;;;;;;20.14;70.45;100053.34;4996219;28;102310;-49
2022/06/22 04:22:07;;;;;;;1.52;1.42;;;;;;;20.14;70.31;100045.03;4995376;28;107962;-48
2022/06/22 04:24:42;;;;;;;1.48;1.38;;;;;;;20.15;70.42;100064.00;4988712;28;102434;-48
2022/06/22 04:27:15;;;;;;;1.30;1.20;;;;;;;20.15;70.36;100057.69;4987818;28;102202;-48
2022/06/22 04:29:45;;;;;;;1.85;1.50;;;;;;;20.16;70.33;100057.34;4994654;28;102801;-47
2022/06/22 04:32:18;;;;;;;1.38;1.27;;;;;;;20.18;70.34;100068.03;4995098;28;103900;-48
2022/06/22 04:34:51;;;;;;;1.45;1.35;;;;;;;20.17;70.26;100078.28;4996553;28;102413;-47
2022/06/22 04:37:24;;;;;;;1.52;1.30;;;;;;;20.19;70.47;100069.63;4995011;28;102169;-48
2022/06/22 04:39:59;;;;;;;1.70;1.60;;;;;;;20.20;70.36;100070.47;4996741;28;102265;-47
2022/06/22 04:42:25;;;;;;;1.40;1.30;;;;;;;20.19;70.20;100064.13;4991200;28;103785;-47
2022/06/22 04:44:52;;;;;;;1.40;1.30;;;;;;;20.19;70.31;100075.16;4995606;28;103964;-48
2022/06/22 04:47:28;;;;;;;1.52;1.42;;;;;;;20.19;70.42;100053.06;4995011;28;102408;-48
2022/06/22 04:49:58;;;;;;;1.42;1.33;;;;;;;20.20;70.46;100051.13;4995380;28;102178;-49
2022/06/22 04:52:31;;;;;;;1.67;1.58;;;;;;;20.20;70.39;100049.16;4991734;28;104149;-48
2022/06/22 04:55:01;;;;;;;1.60;1.50;;;;;;;20.21;70.36;100039.72;4995819;28;102386;-47
2022/06/22 04:57:31;;;;;;;1.73;1.63;;;;;;;20.21;70.46;100039.72;4993922;28;102310;-48
2022/06/22 05:00:01;;;;;;;1.55;1.45;;;;;;;20.22;70.29;100041.31;4992751;28;102539;-48
2022/06/22 05:02:31;;;;;;;1.50;1.40;;;;;;;20.23;70.50;100040.19;4991190;28;103680;-48
2022/06/22 05:05:05;;;;;;;2.25;1.38;;;;;;;20.25;70.22;100040.63;4995955;28;101996;-48
2022/06/22 05:07:40;;;;;;;1.20;1.20;;;;;;;20.26;70.23;100036.69;4993539;28;102545;-49
2022/06/22 05:10:18;;;;;;;1.67;1.58;;;;;;;20.27;70.30;100041.06;4995624;28;102221;-48
2022/06/22 05:12:48;;;;;;;1.20;1.20;;;;;;;20.28;70.12;100039.91;4977125;28;108354;-48
2022/06/22 05:15:21;;;;;;;1.77;1.67;;;;;;;20.30;70.34;100028.50;4994808;28;102339;-48
2022/06/22 05:17:50;;;;;;;1.42;1.20;;;;;;;20.31;70.12;100041.16;4993387;28;102313;-48
2022/06/22 05:20:25;;;;;;;1.98;1.52;;;;;;;20.32;70.30;100038.03;4993259;28;102584;-48
2022/06/22 05:22:55;;;;;;;1.52;1.42;;;;;;;20.34;70.18;100032.97;4985205;28;103939;-47
2022/06/22 05:25:21;;;;;;;1.30;1.20;;;;;;;20.36;70.00;100038.94;4987977;28;102181;-47
2022/06/22 05:27:56;;;;;;;2.05;1.25;;;;;;;20.37;69.91;100015.66;4985574;28;102708;-48
2022/06/22 05:30:23;;;;;;;1.33;1.23;;;;;;;20.40;69.89;100022.47;4995704;28;102444;-48
2022/06/22 05:32:55;;;;;;;1.42;1.30;;;;;;;20.42;69.77;100027.66;4992331;28;103979;-47
2022/06/22 05:35:27;;;;;;;1.23;1.13;;;;;;;20.45;69.55;100032.44;4994576;28;102117;-47
2022/06/22 05:37:56;;;;;;;1.33;1.23;;;;;;;20.47;69.95;100035.66;4993553;28;101977;-48
2022/06/22 05:40:26;;;;;;;1.30;1.20;;;;;;;20.49;69.62;100022.31;4996725;28;102522;-48
2022/06/22 05:42:53;;;;;;;1.33;1.23;;;;;;;20.50;69.34;100019.22;4975208;28;103913;-47
2022/06/22 05:45:23;;;;;;;1.55;1.17;;;;;;;20.52;69.24;100027.97;4993617;28;102471;-48
2022/06/22 05:47:53;;;;;;;1.63;1.38;;;;;;;20.54;69.22;100024.81;4991756;28;103639;-48
2022/06/22 05:50:31;;;;;;;1.30;1.20;;;;;;;20.55;69.49;100026.41;4995739;28;102212;-48
2022/06/22 05:53:04;;;;;;;1.63;1.23;;;;;;;20.57;69.18;100024.91;4994085;28;103877;-47
2022/06/22 05:55:37;;;;;;;2.78;1.20;;;;;;;20.59;69.40;100024.56;4994326;28;101885;-48
2022/06/22 05:58:09;;;;;;;1.90;1.30;;;;;;;20.59;69.59;100016.25;4992423;28;102270;-46
2022/06/22 06:00:42;;;;;;;1.60;1.40;;;;;;;20.60;69.49;100023.41;4991447;28;102504;-47
2022/06/22 06:03:23;;;;;;;1.77;1.30;;;;;;;20.60;69.40;100020.66;4988716;28;104184;-48
2022/06/22 06:05:52;;;;;;;1.40;1.30;;;;;;;20.61;69.17;100019.47;4993865;28;102013;-48
2022/06/22 06:08:23;;;;;;;1.25;1.17;;;;;;;20.65;69.09;100014.84;4993809;28;102485;-49
2022/06/22 06:10:51;;;;;;;2.17;1.10;;;;;;;20.65;69.43;100014.84;4994203;28;101984;-48
2022/06/22 06:13:23;;;;;;;1.20;1.10;;;;;;;20.65;69.09;100009.31;4985787;28;106249;-48
2022/06/22 06:15:54;;;;;;;2.65;1.38;;;;;;;20.66;68.93;99999.06;4989323;28;102359;-48
2022/06/22 06:18:26;;;;;;;1.48;1.30;;;;;;;20.67;69.21;100003.44;4990749;28;102731;-48
2022/06/22 06:20:59;;;;;;;1.20;1.10;;;;;;;20.68;68.98;100014.13;4995647;28;102357;-48
2022/06/22 06:23:32;;;;;;;1.23;1.02;;;;;;;20.69;69.01;100012.16;4992982;28;104198;-48
2022/06/22 06:28:54;;;;;;;1.40;1.30;;;;;;;20.72;68.91;100014.22;4990111;28;102299;-48
2022/06/22 06:31:32;;;;;;;1.23;1.20;;;;;;;20.73;68.90;100021.34;4989968;28;102495;-47
2022/06/22 06:34:00;;;;;;;1.25;1.15;;;;;;;20.75;69.02;100007.97;4989297;28;104230;-48
2022/06/22 06:36:29;;;;;;;;;;;;;;;20.75;68.38;100008.78;4990825;28;102433;-48
2022/06/22 06:39:00;;;;;;;1.40;1.30;;;;;;;20.76;68.83;100015.91;4990093;28;102623;-47
2022/06/22 06:41:31;;;;;;;2.42;1.27;;;;;;;20.77;68.63;100013.94;4991723;28;102513;-48
2022/06/22 06:44:00;;;;;;;1.00;1.00;;;;;;;20.77;68.65;100008.41;4992766;28;103945;-48
2022/06/22 06:46:30;;;;;;;1.67;1.27;;;;;;;20.77;68.82;100006.47;4994802;28;102358;-48
2022/06/22 06:49:05;;;;;;;1.23;1.13;;;;;;;20.79;68.73;100017.97;4993508;28;102285;-50
2022/06/22 06:51:35;;;;;;;1.92;1.08;;;;;;;20.78;68.80;100002.53;4976449;28;102218;-48
2022/06/22 06:54:09;;;;;;;1.00;0.95;;;;;;;20.80;68.56;100002.97;4973182;28;103908;-48
2022/06/22 06:56:42;;;;;;;1.98;1.13;;;;;;;20.79;68.74;99995.84;4973579;28;102071;-53
2022/06/22 06:59:13;;;;;;;2.63;1.20;;;;;;;20.80;68.58;99994.66;4968686;28;102496;-47
2022/06/22 07:01:44;;;;;;;1.35;1.10;;;;;;;20.79;68.69;99984.78;4955492;28;102101;-48
2022/06/22 07:04:15;;;;;;;1.15;0.98;;;;;;;20.80;68.58;99986.38;4953028;28;103926;-48
2022/06/22 07:06:43;;;;;;;1.17;1.08;;;;;;;20.81;68.48;99976.94;4954761;28;102406;-48
2022/06/22 07:09:16;;;;;;;0.93;0.93;;;;;;;20.82;68.44;99992.38;4953838;28;102399;-47
2022/06/22 07:11:48;;;;;;;1.17;1.08;;;;;;;20.84;68.23;100000.28;4952658;28;103482;-47
2022/06/22 07:14:21;;;;;;;1.13;1.05;;;;;;;20.83;68.47;99980.13;4948732;28;103954;-48
2022/06/22 07:16:51;;;;;;;1.95;1.10;;;;;;;20.83;68.24;99999.50;4948175;28;102399;-48
2022/06/22 07:19:24;;;;;;;1.70;1.27;;;;;;;20.84;68.32;99987.28;4949024;28;102699;-47
2022/06/22 07:21:55;;;;;;;1.27;1.17;;;;;;;20.83;68.32;99993.97;4944963;28;102275;-48
2022/06/22 07:24:29;;;;;;;3.30;1.10;;;;;;;20.82;68.27;99981.31;4948890;28;104063;-48
2022/06/22 07:27:02;;;;;;;1.33;1.08;;;;;;;20.84;68.16;99979.00;4946369;28;102495;-48
2022/06/22 07:29:35;;;;;;;1.00;1.00;;;;;;;20.84;68.12;99984.53;4961430;28;102321;-48
2022/06/22 07:32:12;;;;;;;1.20;1.00;;;;;;;20.83;68.17;99995.94;4956075;28;102569;-48
2022/06/22 07:34:46;;;;;;;2.15;0.93;;;;;;;20.81;68.37;99985.25;4960567;28;104192;-49
2022/06/22 07:37:20;;;;;;;1.10;1.00;;;;;;;20.82;67.80;99992.38;4970090;28;102434;-47
2022/06/22 07:39:52;;;;;;;0.90;0.90;;;;;;;20.82;68.20;99991.56;4951869;28;102125;-51
2022/06/22 07:42:20;;;;;;;1.27;1.00;;;;;;;20.82;68.21;99981.31;4954410;28;102548;-49
2022/06/22 07:44:47;;;;;;;1.33;1.10;;;;;;;20.83;68.12;99976.56;4952552;28;104285;-48
2022/06/22 07:47:22;;;;;;;0.95;0.90;;;;;;;20.82;68.37;99975.78;4956173;28;102440;-47
2022/06/22 07:49:55;;;;;;;3.03;1.38;;;;;;;20.84;68.05;99989.22;4960083;28;102316;-47
2022/06/22 07:52:27;;;;;;;2.40;1.00;;;;;;;20.83;68.22;99977.38;4996043;28;102421;-47
2022/06/22 07:55:00;;;;;;;1.20;1.10;;;;;;;20.83;68.17;99982.91;4996201;28;103943;-47
2022/06/22 07:57:34;;;;;;;1.73;1.50;;;;;;;20.83;67.94;99982.91;4994826;28;102578;-47
2022/06/22 08:00:08;;;;;;;1.08;0.90;;;;;;;20.82;67.93;99992.38;4995469;28;102410;-47
2022/06/22 08:02:40;;;;;;;1.63;0.98;;;;;;;20.82;67.82;99992.38;4993320;28;102394;-47
2022/06/22 08:05:14;;;;;;;1.38;0.90;;;;;;;20.79;67.96;99995.03;4991710;28;103991;-48
2022/06/22 08:07:47;;;;;;;1.17;1.08;;;;;;;20.79;68.10;99990.31;4989679;28;102054;-48
2022/06/22 08:10:18;;;;;;;1.88;1.05;;;;;;;20.79;68.19;99982.00;4993804;28;102149;-48
2022/06/22 08:12:51;;;;;;;1.30;1.17;;;;;;;20.79;68.29;99989.50;4995721;28;102392;-48
2022/06/22 08:15:22;;;;;;;1.15;1.02;;;;;;;20.82;68.46;99991.56;4988846;28;106277;-47
2022/06/22 08:17:52;;;;;;;1.20;1.10;;;;;;;20.81;68.15;99988.00;4994622;28;102218;-47
2022/06/22 08:20:24;;;;;;;1.10;1.00;;;;;;;20.83;68.05;99987.63;4997544;28;102032;-46
2022/06/22 08:22:51;;;;;;;1.65;1.08;;;;;;;20.84;68.09;99989.22;4996572;28;102397;-47
2022/06/22 08:25:20;;;;;;;1.67;1.05;;;;;;;20.83;68.07;99985.66;4996491;28;103881;-47
2022/06/22 08:27:47;;;;;;;1.52;1.00;;;;;;;20.85;68.05;99979.78;4997078;28;102090;-48
2022/06/22 08:30:15;;;;;;;1.20;1.10;;;;;;;20.85;68.07;99977.03;4997834;28;102213;-47
2022/06/22 08:32:47;;;;;;;2.30;1.20;;;;;;;20.84;67.77;99984.53;4996449;28;102562;-46
2022/06/22 08:35:18;;;;;;;1.52;1.00;;;;;;;20.84;67.94;99980.94;4995748;28;103807;-48
2022/06/22 08:37:52;;;;;;;0.90;0.80;;;;;;;20.82;67.80;99989.59;4997239;28;102433;-47
2022/06/22 08:40:31;;;;;;;1.17;1.08;;;;;;;20.81;67.87;99985.25;4997305;28;102085;-49
2022/06/22 08:43:07;;;;;;;1.13;1.02;;;;;;;20.80;68.19;99983.59;4996486;28;102327;-48
2022/06/22 08:45:49;;;;;;;1.00;1.00;;;;;;;20.80;68.11;99985.56;4991923;28;103924;-47
2022/06/22 08:48:53;;;;;;;1.40;0.98;;;;;;;20.78;67.74;99991.47;4988163;28;102486;-47
2022/06/22 08:51:35;;;;;;;1.23;0.93;;;;;;;20.77;67.76;99997.34;4990139;28;102638;-48
2022/06/22 08:54:22;;;;;;;1.60;0.90;;;;;;;20.75;67.89;99997.72;4994133;28;102503;-47
2022/06/22 08:56:55;;;;;;;1.02;1.02;;;;;;;20.74;67.86;99989.78;4974409;28;103865;-48
2022/06/22 08:59:53;;;;;;;2.67;1.02;;;;;;;20.73;67.88;99982.63;4986894;28;102215;-48
2022/06/22 09:03:08;;;;;;;1.10;1.00;;;;;;;20.71;68.02;99990.50;4978803;28;102120;-47
2022/06/22 09:06:01;;;;;;;1.35;1.25;;;;;;;20.69;68.05;99988.09;4934098;28;102461;-48
2022/06/22 09:09:03;;;;;;;1.13;1.08;;;;;;;20.68;67.41;99989.25;4988490;28;104238;-48
2022/06/22 09:11:37;;;;;;;2.15;1.33;;;;;;;20.70;67.70;99998.00;4989915;28;102397;-47
2022/06/22 09:14:26;;;;;;;1.25;1.13;;;;;;;20.70;68.07;99992.47;4991802;28;102144;-47
2022/06/22 09:17:17;;;;;;;1.27;1.10;;;;;;;20.71;67.79;99985.78;4991743;28;102429;-47
2022/06/22 09:20:04;;;;;;;1.25;1.15;;;;;;;20.69;67.76;99982.56;4994043;28;104072;-46
2022/06/22 09:22:45;;;;;;;3.90;1.20;;;;;;;20.69;67.62;99976.22;4992229;28;103613;-48
2022/06/22 09:25:25;;;;;;;1.27;1.17;;;;;;;20.68;67.94;99978.19;4988121;28;103807;-48
2022/06/22 09:28:00;;;;;;;2.67;1.10;;;;;;;20.65;68.22;99976.13;4994995;28;104052;-48
2022/06/22 09:30:51;;;;;;;1.90;1.05;;;;;;;20.66;68.14;99974.16;4993857;28;103939;-48
2022/06/22 09:33:47;;;;;;;1.48;1.05;;;;;;;20.63;68.05;99978.47;4986504;28;103066;-47
2022/06/22 09:36:43;;;;;;;1.63;1.02;;;;;;;20.63;68.37;99989.53;4987317;28;102344;-49
2022/06/22 09:39:45;;;;;;;1.48;1.05;;;;;;;20.62;68.04;99972.13;4994860;28;102013;-48
2022/06/22 09:42:28;;;;;;;2.60;0.82;;;;;;;20.61;68.07;99980.78;4992730;28;103946;-48
2022/06/22 09:45:10;;;;;;;1.52;1.10;;;;;;;20.61;68.19;99986.31;4990840;28;102347;-48
2022/06/22 09:48:06;;;;;;;2.08;0.90;;;;;;;20.62;68.26;99991.47;4991524;28;102532;-48
2022/06/22 09:50:50;;;;;;;1.08;1.08;;;;;;;20.61;68.33;99981.56;4985381;28;102408;-47
2022/06/22 09:53:52;;;;;;;1.17;1.08;;;;;;;20.63;68.55;99989.53;4991471;28;107936;-48
2022/06/22 09:56:39;;;;;;;1.92;0.90;;;;;;;20.63;68.35;99989.53;4993312;28;102620;-46
2022/06/22 09:59:32;;;;;;;1.42;1.02;;;;;;;20.61;68.18;99989.06;4990634;28;102448;-47
2022/06/22 10:02:22;;;;;;;1.58;1.20;;;;;;;20.62;68.46;99994.22;4994015;28;102156;-47
2022/06/22 10:05:28;;;;;;;1.30;1.02;;;;;;;20.61;68.27;99991.84;4991493;28;103801;-47
2022/06/22 10:08:09;;;;;;;1.30;1.20;;;;;;;20.62;68.31;99987.91;4989641;28;102444;-48
2022/06/22 10:10:47;;;;;;;1.50;1.00;;;;;;;20.61;68.46;99989.06;4982932;28;102563;-51
2022/06/22 10:13:40;;;;;;;2.25;1.10;;;;;;;20.61;68.48;99986.31;4996952;28;102816;-48
2022/06/22 10:16:18;;;;;;;1.20;1.00;;;;;;;20.62;68.26;99996.19;4986218;28;103737;-46
2022/06/22 10:18:58;;;;;;;1.48;1.10;;;;;;;20.61;68.27;100000.13;4991430;28;102361;-48
2022/06/22 10:21:38;;;;;;;1.55;1.10;;;;;;;20.60;68.05;99995.78;4994856;28;102227;-48
2022/06/22 10:24:26;;;;;;;1.15;1.05;;;;;;;20.59;68.31;99991.38;4995896;28;102330;-49
2022/06/22 10:27:11;;;;;;;0.90;0.90;;;;;;;20.57;68.50;100013.06;4982571;28;107936;-48
2022/06/22 10:30:01;;;;;;;1.00;1.00;;;;;;;20.56;68.42;100001.19;4993881;28;102342;-48
2022/06/22 10:33:10;;;;;;;1.25;1.00;;;;;;;20.56;68.46;100011.47;4985155;28;102110;-47
2022/06/22 10:36:06;;;;;;;1.20;1.05;;;;;;;20.53;69.00;100012.16;4983977;28;102275;-48
2022/06/22 10:39:00;;;;;;;2.65;1.10;;;;;;;20.52;69.46;100016.91;4977966;28;104118;-47
2022/06/22 10:47:49;;;;;;;1.63;1.30;;;;;;;20.50;68.96;100016.44;4994853;28;102125;-47
2022/06/22 10:50:29;;;;;;;1.70;1.60;;;;;;;20.49;69.16;100020.34;4991147;28;103884;-47
2022/06/22 10:53:42;;;;;;;2.28;1.20;;;;;;;20.50;68.92;100010.13;4985491;28;102684;-47
2022/06/22 10:56:27;;;;;;;2.65;1.17;;;;;;;20.51;68.63;100022.75;4987146;28;102416;-48
2022/06/22 10:59:20;;;;;;;1.48;1.20;;;;;;;20.50;68.84;100027.50;4991104;28;102055;-47
2022/06/22 11:02:01;;;;;;;3.00;1.15;;;;;;;20.50;69.03;100021.16;4993444;28;104032;-47
2022/06/22 11:05:01;;;;;;;1.35;1.20;;;;;;;20.52;68.62;100029.91;4992347;28;102424;-47
2022/06/22 11:07:56;;;;;;;3.20;1.02;;;;;;;20.49;68.62;100022.31;4985832;28;104136;-47
2022/06/22 11:10:39;;;;;;;1.33;1.10;;;;;;;20.49;68.45;100025.06;4992840;28;102739;-49
2022/06/22 11:13:30;;;;;;;1.40;1.20;;;;;;;20.48;68.99;100037.25;4991676;28;104069;-48
2022/06/22 11:16:09;;;;;;;1.30;1.20;;;;;;;20.47;69.05;100024.59;4978718;28;102607;-48
2022/06/22 11:19:06;;;;;;;2.55;1.13;;;;;;;20.47;69.41;100030.13;4992127;28;102408;-49
2022/06/22 11:21:46;;;;;;;1.55;1.10;;;;;;;20.46;69.21;100017.47;4988071;28;102608;-48
2022/06/22 11:24:43;;;;;;;1.58;1.23;;;;;;;20.46;68.95;100028.53;4988120;28;104149;-47
2022/06/22 11:33:40;;;;;;;2.65;1.20;;;;;;;20.44;68.97;100028.06;4990787;28;102950;-48
2022/06/22 11:36:17;;;;;;;1.90;1.30;;;;;;;20.43;69.48;100013.47;4986423;28;103971;-47
2022/06/22 11:39:01;;;;;;;1.48;0.98;;;;;;;20.44;69.38;100015.06;4992580;28;102405;-47
2022/06/22 11:41:53;;;;;;;1.10;1.00;;;;;;;20.43;68.73;100013.47;4969175;28;102317;-48
2022/06/22 11:44:43;;;;;;;1.27;1.17;;;;;;;20.44;69.20;100015.06;4988954;28;102304;-48
2022/06/22 11:47:19;;;;;;;2.05;1.65;;;;;;;20.44;69.24;100015.06;4988196;28;103907;-48
2022/06/22 11:49:58;;;;;;;2.15;1.00;;;;;;;20.43;69.51;100019.00;4991801;28;101935;-48
2022/06/22 11:52:56;;;;;;;1.73;1.20;;;;;;;20.43;69.46;100012.66;4992664;28;102302;-48
2022/06/22 11:55:25;;;;;;;1.23;1.10;;;;;;;20.45;69.25;100010.31;4992163;28;102360;-48
2022/06/22 11:58:09;;;;;;;;;;;;;;;20.43;69.39;100012.66;4990698;28;103906;-47
2022/06/22 12:00:45;;;;;;;2.08;1.13;;;;;;;20.43;69.29;100018.19;4992953;28;102394;-48
2022/06/22 12:04:02;;;;;;;3.30;1.20;;;;;;;20.44;68.75;100006.75;4991116;28;102049;-47
2022/06/22 12:06:51;;;;;;;1.05;1.05;;;;;;;20.44;69.19;100008.72;4972428;28;102407;-48
2022/06/22 12:09:25;;;;;;;;;;;;;;;20.44;68.92;100008.72;4985273;28;103969;-47
2022/06/22 12:12:15;;;;;;;1.40;1.08;;;;;;;20.44;68.90;100000.44;4990425;28;102421;-48
2022/06/22 12:15:07;;;;;;;1.50;1.20;;;;;;;20.45;68.54;99999.28;4983104;28;102337;-48
2022/06/22 12:17:51;;;;;;;1.50;1.20;;;;;;;20.44;69.22;100000.44;4988510;28;104090;-47
2022/06/22 12:20:32;;;;;;;1.17;1.08;;;;;;;20.44;68.88;100008.72;4988744;28;104066;-48
2022/06/22 12:23:09;;;;;;;0.80;0.80;;;;;;;20.45;68.55;99997.34;4984877;28;102592;-49
2022/06/22 12:25:56;;;;;;;1.10;1.00;;;;;;;20.45;69.17;99988.22;4988056;28;102240;-48